createdAt,value
2023-05-21T00:01:46.109Z,17.00
2023-05-21T00:04:16.026Z,17.00
2023-05-21T00:06:43.748Z,16.90
2023-05-21T00:09:13.527Z,16.90
2023-05-21T00:11:41.161Z,16.90
2023-05-21T00:14:08.702Z,16.90
2023-05-21T00:16:36.270Z,16.90
2023-05-21T00:19:03.842Z,16.90
2023-05-21T00:21:31.715Z,17.00
2023-05-21T00:23:59.186Z,17.00
2023-05-21T00:26:26.536Z,17.00
2023-05-21T00:28:57.636Z,17.00
2023-05-21T00:31:25.238Z,17.00
2023-05-21T00:33:52.710Z,17.00
2023-05-21T00:36:23.696Z,17.00
2023-05-21T00:38:52.093Z,16.90
2023-05-21T00:41:19.848Z,16.80
2023-05-21T00:43:47.833Z,16.80
2023-05-21T00:46:18.536Z,16.80
2023-05-21T00:48:47.265Z,16.70
2023-05-21T00:51:15.787Z,16.60
2023-05-21T00:53:44.279Z,16.60
2023-05-21T00:56:11.995Z,16.60
2023-05-21T00:58:40.209Z,16.50
2023-05-21T01:01:14.229Z,16.50
2023-05-21T01:03:42.573Z,16.40
2023-05-21T01:06:11.461Z,16.30
2023-05-21T01:08:41.027Z,16.20
2023-05-21T01:11:09.956Z,16.20
2023-05-21T01:13:40.984Z,16.20
2023-05-21T01:16:09.632Z,16.20
2023-05-21T01:18:43.768Z,16.10
2023-05-21T01:21:17.732Z,16.10
2023-05-21T01:23:45.567Z,16.10
2023-05-21T01:26:13.033Z,16.10
2023-05-21T01:28:40.608Z,16.10
2023-05-21T01:31:22.664Z,16.10
2023-05-21T01:33:54.551Z,16.00
2023-05-21T01:36:26.910Z,16.00
2023-05-21T01:39:04.123Z,16.00
2023-05-21T01:41:38.688Z,16.00
2023-05-21T01:44:08.783Z,16.00
2023-05-21T01:46:37.784Z,16.00
2023-05-21T01:49:07.193Z,16.00
2023-05-21T01:51:35.418Z,15.90
2023-05-21T01:54:03.251Z,15.90
2023-05-21T01:56:33.758Z,15.90
2023-05-21T01:59:01.988Z,15.90
2023-05-21T02:01:30.362Z,15.80
2023-05-21T02:03:58.690Z,15.90
2023-05-21T02:06:26.457Z,15.80
2023-05-21T02:08:55.545Z,15.80
2023-05-21T02:11:23.721Z,15.80
2023-05-21T02:13:51.096Z,15.80
2023-05-21T02:16:19.863Z,15.80
2023-05-21T02:18:48.194Z,15.80
2023-05-21T02:21:15.640Z,15.80
2023-05-21T02:23:43.301Z,15.80
2023-05-21T02:26:10.907Z,15.70
2023-05-21T02:28:39.151Z,15.70
2023-05-21T02:31:06.612Z,15.70
2023-05-21T02:33:34.123Z,15.60
2023-05-21T02:36:01.505Z,15.60
2023-05-21T02:38:28.928Z,15.50
2023-05-21T02:40:56.421Z,15.50
2023-05-21T02:43:24.474Z,15.40
2023-05-21T02:45:52.559Z,15.40
2023-05-21T02:48:21.067Z,15.30
2023-05-21T02:50:48.598Z,15.30
2023-05-21T02:53:16.644Z,15.30
2023-05-21T02:55:44.206Z,15.30
2023-05-21T02:58:13.528Z,15.20
2023-05-21T03:00:41.970Z,15.20
2023-05-21T03:03:09.876Z,15.30
2023-05-21T03:05:37.506Z,15.30
2023-05-21T03:08:05.506Z,15.20
2023-05-21T03:10:32.862Z,15.20
2023-05-21T03:13:00.299Z,15.30
2023-05-21T03:15:33.420Z,15.30
2023-05-21T03:18:01.306Z,15.30
2023-05-21T03:20:29.475Z,15.30
2023-05-21T03:22:56.884Z,15.30
2023-05-21T03:25:25.392Z,15.30
2023-05-21T03:27:53.989Z,15.30
2023-05-21T03:30:40.128Z,15.40
2023-05-21T03:33:27.590Z,15.40
2023-05-21T03:35:56.021Z,15.40
2023-05-21T03:38:25.053Z,15.40
2023-05-21T03:40:52.539Z,15.50
2023-05-21T03:43:20.143Z,15.60
2023-05-21T03:45:47.955Z,15.80
2023-05-21T03:48:33.933Z,16.00
2023-05-21T03:51:02.831Z,16.30
2023-05-21T03:53:30.479Z,16.60
2023-05-21T03:55:57.956Z,16.80
2023-05-21T03:58:26.848Z,17.00
2023-05-21T04:00:54.813Z,17.10
2023-05-21T04:03:22.668Z,17.20
2023-05-21T04:05:50.139Z,17.50
2023-05-21T04:08:17.875Z,17.90
2023-05-21T04:10:45.579Z,18.20
2023-05-21T04:13:13.944Z,18.60
2023-05-21T04:15:44.801Z,18.90
2023-05-21T04:18:13.917Z,19.20
2023-05-21T04:20:41.488Z,19.50
2023-05-21T04:23:09.735Z,19.70
2023-05-21T04:25:38.998Z,20.00
2023-05-21T04:28:07.365Z,20.20
2023-05-21T04:30:35.829Z,20.50
2023-05-21T04:33:04.315Z,20.60
2023-05-21T04:35:35.550Z,20.80
2023-05-21T04:38:05.693Z,21.00
2023-05-21T04:40:36.815Z,21.10
2023-05-21T04:43:04.786Z,21.30
2023-05-21T04:45:32.820Z,21.60
2023-05-21T04:48:01.175Z,21.80
2023-05-21T04:50:34.046Z,22.00
2023-05-21T04:53:03.356Z,22.20
2023-05-21T04:55:30.893Z,22.40
2023-05-21T04:57:58.268Z,22.60
2023-05-21T05:00:26.256Z,22.80
2023-05-21T05:02:53.926Z,22.90
2023-05-21T05:05:22.181Z,23.10
2023-05-21T05:07:49.528Z,23.20
2023-05-21T05:10:16.929Z,23.30
2023-05-21T05:12:44.757Z,23.40
2023-05-21T05:15:12.109Z,23.50
2023-05-21T05:17:39.970Z,23.60
2023-05-21T05:20:08.635Z,23.80
2023-05-21T05:22:36.281Z,24.00
2023-05-21T05:25:05.260Z,24.20
2023-05-21T05:27:32.649Z,24.40
2023-05-21T05:30:00.213Z,24.50
2023-05-21T05:32:27.963Z,24.60
2023-05-21T05:34:56.196Z,24.60
2023-05-21T05:37:24.205Z,24.70
2023-05-21T05:39:52.192Z,24.80
2023-05-21T05:42:19.553Z,24.60
2023-05-21T05:44:47.036Z,24.60
2023-05-21T05:47:15.026Z,24.70
2023-05-21T05:49:42.665Z,24.50
2023-05-21T05:52:11.186Z,24.60
2023-05-21T05:54:39.332Z,24.60
2023-05-21T05:57:06.998Z,24.60
2023-05-21T05:59:35.325Z,24.70
2023-05-21T06:02:03.776Z,24.90
2023-05-21T06:04:31.996Z,25.20
2023-05-21T06:07:00.708Z,25.30
2023-05-21T06:09:28.316Z,25.30
2023-05-21T06:11:55.920Z,25.40
2023-05-21T06:14:23.276Z,25.50
2023-05-21T06:16:50.830Z,25.70
2023-05-21T06:19:19.143Z,25.90
2023-05-21T06:21:46.748Z,25.80
2023-05-21T06:24:14.264Z,25.90
2023-05-21T06:26:42.164Z,25.90
2023-05-21T06:29:09.642Z,26.00
2023-05-21T06:31:37.234Z,26.10
2023-05-21T06:34:07.548Z,26.20
2023-05-21T06:36:35.198Z,26.40
2023-05-21T06:39:03.700Z,26.50
2023-05-21T06:41:32.028Z,26.40
2023-05-21T06:44:04.067Z,26.50
2023-05-21T06:46:50.579Z,26.40
2023-05-21T06:49:19.802Z,26.40
2023-05-21T06:51:47.241Z,26.50
2023-05-21T06:54:15.232Z,26.50
2023-05-21T06:56:43.407Z,26.40
2023-05-21T06:59:11.133Z,26.20
2023-05-21T07:01:42.526Z,26.00
2023-05-21T07:04:11.326Z,25.80
2023-05-21T07:06:39.898Z,25.70
2023-05-21T07:09:07.288Z,25.70
2023-05-21T07:11:37.201Z,25.60
2023-05-21T07:14:05.911Z,25.70
2023-05-21T07:16:36.001Z,25.80
2023-05-21T07:19:03.750Z,25.90
2023-05-21T07:21:31.247Z,25.80
2023-05-21T07:23:59.274Z,25.80
2023-05-21T07:26:26.605Z,25.80
2023-05-21T07:28:54.374Z,25.80
2023-05-21T07:31:21.822Z,25.80
2023-05-21T07:33:51.949Z,25.70
2023-05-21T07:36:23.490Z,25.80
2023-05-21T07:38:51.324Z,25.80
2023-05-21T07:41:18.932Z,25.90
2023-05-21T07:43:47.941Z,25.90
2023-05-21T07:46:16.407Z,26.00
2023-05-21T07:48:44.866Z,26.00
2023-05-21T07:51:12.856Z,26.00
2023-05-21T07:53:40.299Z,26.00
2023-05-21T07:56:11.187Z,26.00
2023-05-21T07:58:39.632Z,26.00
2023-05-21T08:01:07.478Z,25.90
2023-05-21T08:03:35.290Z,26.00
2023-05-21T08:06:03.325Z,26.00
2023-05-21T08:08:30.861Z,26.00
2023-05-21T08:10:58.990Z,26.20
2023-05-21T08:13:28.029Z,26.20
2023-05-21T08:15:56.092Z,26.40
2023-05-21T08:18:24.111Z,26.40
2023-05-21T08:20:54.312Z,26.60
2023-05-21T08:23:23.182Z,26.60
2023-05-21T08:25:54.471Z,26.60
2023-05-21T08:28:25.109Z,26.50
2023-05-21T08:30:53.319Z,26.40
2023-05-21T08:33:23.043Z,26.40
2023-05-21T08:35:50.510Z,26.40
2023-05-21T08:38:22.668Z,26.60
2023-05-21T08:40:59.999Z,26.60
2023-05-21T08:43:28.905Z,26.60
2023-05-21T08:45:59.228Z,26.70
2023-05-21T08:48:31.734Z,26.80
2023-05-21T08:51:01.230Z,26.90
2023-05-21T08:53:35.904Z,26.90
2023-05-21T08:56:07.045Z,27.00
2023-05-21T08:58:49.461Z,27.20
2023-05-21T09:01:21.895Z,27.30
2023-05-21T09:04:12.234Z,27.40
2023-05-21T09:06:48.260Z,27.50
2023-05-21T09:09:33.846Z,27.70
2023-05-21T09:12:01.681Z,27.80
2023-05-21T09:14:29.632Z,27.90
2023-05-21T09:17:03.236Z,27.80
2023-05-21T09:19:32.341Z,27.70
2023-05-21T09:22:04.491Z,27.80
2023-05-21T09:24:36.089Z,27.80
2023-05-21T09:27:07.277Z,27.90
2023-05-21T09:29:35.479Z,27.90
2023-05-21T09:32:07.828Z,28.10
2023-05-21T09:34:37.517Z,28.10
2023-05-21T09:37:16.508Z,28.10
2023-05-21T09:39:54.051Z,28.10
2023-05-21T09:42:22.119Z,28.10
2023-05-21T09:44:50.323Z,28.10
2023-05-21T09:47:20.484Z,28.10
2023-05-21T09:49:49.048Z,28.20
2023-05-21T09:52:24.929Z,28.50
2023-05-21T09:54:53.317Z,28.50
2023-05-21T09:57:26.688Z,28.50
2023-05-21T09:59:54.263Z,28.50
2023-05-21T10:02:23.182Z,28.60
2023-05-21T10:04:51.993Z,28.60
2023-05-21T10:07:25.809Z,28.60
2023-05-21T10:09:58.256Z,28.60
2023-05-21T10:12:27.611Z,28.70
2023-05-21T10:15:03.867Z,28.70
2023-05-21T10:17:31.488Z,28.80
2023-05-21T10:19:59.996Z,28.90
2023-05-21T10:22:28.203Z,28.90
2023-05-21T10:24:57.593Z,28.90
2023-05-21T10:27:26.213Z,29.00
2023-05-21T10:29:57.137Z,29.10
2023-05-21T10:32:26.683Z,29.20
2023-05-21T10:34:54.548Z,29.30
2023-05-21T10:37:25.145Z,29.30
2023-05-21T10:39:52.571Z,29.40
2023-05-21T10:42:19.879Z,29.40
2023-05-21T10:45:19.510Z,29.30
2023-05-21T10:48:05.323Z,29.20
2023-05-21T10:50:51.495Z,29.20
2023-05-21T10:53:52.275Z,29.30
2023-05-21T10:56:36.556Z,29.40
2023-05-21T10:59:22.237Z,29.50
2023-05-21T11:01:53.035Z,29.50
2023-05-21T11:04:27.900Z,29.70
2023-05-21T11:06:58.647Z,29.80
2023-05-21T11:09:27.183Z,29.90
2023-05-21T11:12:04.724Z,29.90
2023-05-21T11:14:36.758Z,30.00
2023-05-21T11:17:14.207Z,30.00
2023-05-21T11:19:43.881Z,30.00
2023-05-21T11:22:25.645Z,30.00
2023-05-21T11:24:54.897Z,30.00
2023-05-21T11:27:40.253Z,30.10
2023-05-21T11:30:09.631Z,30.10
2023-05-21T11:32:57.665Z,30.20
2023-05-21T11:35:25.452Z,30.20
2023-05-21T11:37:54.370Z,30.10
2023-05-21T11:40:26.817Z,30.10
2023-05-21T11:42:55.888Z,30.10
2023-05-21T11:45:28.439Z,30.00
2023-05-21T11:47:56.590Z,30.00
2023-05-21T11:50:24.469Z,29.90
2023-05-21T11:52:52.919Z,29.90
2023-05-21T11:55:25.926Z,30.10
2023-05-21T11:57:55.254Z,30.30
2023-05-21T12:00:23.075Z,30.30
2023-05-21T12:02:52.319Z,30.30
2023-05-21T12:05:19.826Z,30.30
2023-05-21T12:07:49.308Z,30.30
2023-05-21T12:10:16.990Z,30.30
2023-05-21T12:12:54.719Z,30.30
2023-05-21T12:15:24.566Z,30.30
2023-05-21T12:17:53.203Z,30.30
2023-05-21T12:20:20.966Z,30.30
2023-05-21T12:22:51.499Z,30.30
2023-05-21T12:25:20.554Z,30.50
2023-05-21T12:27:50.358Z,30.50
2023-05-21T12:30:18.000Z,30.50
2023-05-21T12:32:45.544Z,30.50
2023-05-21T12:35:23.661Z,30.70
2023-05-21T12:37:51.977Z,30.60
2023-05-21T12:40:20.312Z,30.50
2023-05-21T12:42:48.201Z,30.50
2023-05-21T12:45:18.528Z,30.70
2023-05-21T12:47:49.502Z,30.70
2023-05-21T12:50:21.089Z,30.60
2023-05-21T12:52:48.608Z,30.40
2023-05-21T12:55:17.255Z,30.40
2023-05-21T12:57:44.598Z,30.40
2023-05-21T13:00:12.656Z,30.50
2023-05-21T13:02:41.768Z,30.70
2023-05-21T13:05:11.252Z,30.70
2023-05-21T13:07:39.968Z,30.70
2023-05-21T13:10:10.538Z,30.70
2023-05-21T13:12:38.072Z,30.80
2023-05-21T13:15:08.179Z,30.90
2023-05-21T13:17:35.873Z,30.90
2023-05-21T13:20:08.240Z,30.90
2023-05-21T13:22:39.072Z,30.90
2023-05-21T13:25:09.283Z,31.10
2023-05-21T13:27:36.776Z,31.00
2023-05-21T13:30:05.989Z,31.00
2023-05-21T13:32:33.449Z,31.00
2023-05-21T13:35:01.020Z,30.90
2023-05-21T13:37:28.750Z,30.80
2023-05-21T13:39:56.172Z,30.80
2023-05-21T13:42:23.892Z,30.80
2023-05-21T13:44:51.289Z,30.70
2023-05-21T13:47:18.591Z,30.70
2023-05-21T13:49:45.911Z,30.70
2023-05-21T13:52:13.491Z,30.70
2023-05-21T13:54:41.560Z,30.80
2023-05-21T13:57:09.188Z,30.80
2023-05-21T13:59:36.770Z,30.90
2023-05-21T14:02:04.302Z,30.80
2023-05-21T14:04:31.786Z,30.90
2023-05-21T14:06:59.101Z,30.80
2023-05-21T14:09:27.443Z,30.90
2023-05-21T14:11:56.855Z,30.70
2023-05-21T14:14:24.370Z,30.70
2023-05-21T14:16:52.317Z,30.70
2023-05-21T14:19:19.920Z,30.60
2023-05-21T14:21:47.274Z,30.70
2023-05-21T14:24:14.611Z,30.80
2023-05-21T14:26:41.987Z,30.80
2023-05-21T14:29:09.591Z,30.80
2023-05-21T14:31:37.833Z,30.70
2023-05-21T14:34:07.027Z,30.70
2023-05-21T14:36:34.805Z,30.70
2023-05-21T14:39:02.873Z,30.70
2023-05-21T14:41:31.112Z,30.70
2023-05-21T14:43:58.842Z,30.70
2023-05-21T14:46:26.737Z,30.70
2023-05-21T14:48:55.461Z,30.70
2023-05-21T14:51:23.299Z,30.70
2023-05-21T14:53:51.861Z,30.70
2023-05-21T14:56:21.677Z,30.70
2023-05-21T14:58:49.433Z,30.70
2023-05-21T15:01:16.910Z,30.70
2023-05-21T15:03:44.432Z,30.70
2023-05-21T15:06:12.142Z,30.50
2023-05-21T15:08:39.442Z,30.40
2023-05-21T15:11:09.781Z,30.50
2023-05-21T15:13:37.954Z,30.50
2023-05-21T15:16:05.806Z,30.60
2023-05-21T15:18:33.267Z,30.60
2023-05-21T15:21:00.704Z,30.50
2023-05-21T15:23:28.736Z,30.40
2023-05-21T15:25:56.151Z,30.30
2023-05-21T15:28:23.447Z,30.40
2023-05-21T15:30:50.949Z,30.50
2023-05-21T15:33:18.500Z,30.50
2023-05-21T15:35:46.223Z,30.50
2023-05-21T15:38:13.792Z,30.40
2023-05-21T15:40:44.270Z,30.40
2023-05-21T15:43:11.659Z,30.40
2023-05-21T15:45:39.489Z,30.30
2023-05-21T15:48:08.177Z,30.30
2023-05-21T15:50:35.862Z,30.30
2023-05-21T15:53:04.550Z,30.30
2023-05-21T15:55:33.486Z,30.20
2023-05-21T15:58:02.471Z,30.10
2023-05-21T16:00:30.330Z,30.00
2023-05-21T16:02:57.798Z,30.00
2023-05-21T16:05:26.831Z,29.90
2023-05-21T16:07:54.203Z,29.90
2023-05-21T16:10:21.732Z,29.90
2023-05-21T16:12:49.334Z,29.90
2023-05-21T16:15:16.880Z,29.90
2023-05-21T16:17:44.199Z,29.90
2023-05-21T16:20:12.215Z,29.90
2023-05-21T16:22:40.663Z,29.80
2023-05-21T16:25:08.492Z,29.80
2023-05-21T16:27:36.388Z,29.80
2023-05-21T16:30:04.481Z,29.80
2023-05-21T16:32:31.826Z,29.80
2023-05-21T16:34:59.465Z,29.80
2023-05-21T16:37:28.582Z,29.70
2023-05-21T16:39:55.943Z,29.70
2023-05-21T16:42:23.835Z,29.60
2023-05-21T16:44:51.240Z,29.50
2023-05-21T16:47:18.669Z,29.50
2023-05-21T16:49:46.253Z,29.50
2023-05-21T16:52:13.680Z,29.60
2023-05-21T16:54:43.531Z,29.60
2023-05-21T16:57:12.365Z,29.60
2023-05-21T16:59:39.843Z,29.60
2023-05-21T17:02:10.739Z,29.60
2023-05-21T17:04:38.501Z,29.60
2023-05-21T17:07:06.155Z,29.60
2023-05-21T17:09:33.725Z,29.60
2023-05-21T17:12:01.127Z,29.50
2023-05-21T17:16:59.830Z,29.40
2023-05-21T17:19:27.308Z,29.30
2023-05-21T17:21:55.977Z,29.20
2023-05-21T17:24:23.577Z,29.20
2023-05-21T17:26:51.176Z,29.10
2023-05-21T17:29:18.864Z,29.10
2023-05-21T17:31:46.657Z,29.10
2023-05-21T17:34:14.151Z,29.00
2023-05-21T17:36:41.622Z,29.00
2023-05-21T17:39:08.965Z,28.90
2023-05-21T17:41:36.712Z,28.90
2023-05-21T17:44:04.164Z,28.80
2023-05-21T17:46:31.858Z,28.80
2023-05-21T17:48:59.865Z,28.80
2023-05-21T17:51:27.468Z,28.70
2023-05-21T17:53:55.839Z,28.50
2023-05-21T17:56:23.213Z,28.40
2023-05-21T17:58:51.206Z,28.20
2023-05-21T18:01:19.102Z,28.10
2023-05-21T18:03:46.719Z,28.00
2023-05-21T18:06:14.130Z,27.80
2023-05-21T18:08:41.614Z,27.80
2023-05-21T18:11:09.039Z,27.80
2023-05-21T18:13:36.398Z,27.90
2023-05-21T18:16:03.864Z,27.90
2023-05-21T18:18:32.610Z,27.80
2023-05-21T18:21:00.284Z,27.60
2023-05-21T18:23:28.790Z,27.40
2023-05-21T18:25:56.268Z,27.10
2023-05-21T18:28:23.741Z,26.80
2023-05-21T18:30:51.177Z,26.50
2023-05-21T18:33:18.738Z,26.30
2023-05-21T18:35:46.320Z,26.00
2023-05-21T18:38:13.931Z,25.80
2023-05-21T18:40:41.298Z,25.60
2023-05-21T18:43:11.209Z,25.40
2023-05-21T18:45:38.681Z,25.20
2023-05-21T18:48:06.484Z,25.10
2023-05-21T18:50:35.185Z,24.90
2023-05-21T18:53:02.900Z,24.80
2023-05-21T18:55:30.495Z,24.70
2023-05-21T18:57:57.895Z,24.60
2023-05-21T19:00:25.596Z,24.50
2023-05-21T19:02:53.518Z,24.40
2023-05-21T19:05:21.543Z,24.30
2023-05-21T19:07:49.449Z,24.20
2023-05-21T19:10:17.501Z,24.10
2023-05-21T19:12:46.173Z,24.00
2023-05-21T19:15:13.817Z,23.90
2023-05-21T19:17:41.376Z,23.80
2023-05-21T19:20:09.651Z,23.70
2023-05-21T19:22:37.377Z,23.60
2023-05-21T19:25:05.088Z,23.50
2023-05-21T19:27:32.612Z,23.40
2023-05-21T19:30:00.341Z,23.40
2023-05-21T19:32:28.119Z,23.30
2023-05-21T19:34:57.371Z,23.30
2023-05-21T19:37:24.731Z,23.20
2023-05-21T19:39:52.072Z,23.10
2023-05-21T19:42:21.366Z,23.00
2023-05-21T19:44:48.840Z,23.00
2023-05-21T19:47:16.296Z,22.90
2023-05-21T19:49:43.578Z,22.90
2023-05-21T19:52:12.202Z,22.80
2023-05-21T19:54:39.672Z,22.80
2023-05-21T19:57:07.365Z,22.70
2023-05-21T19:59:35.360Z,22.70
2023-05-21T20:02:02.752Z,22.60
2023-05-21T20:04:30.019Z,22.60
2023-05-21T20:06:57.500Z,22.40
2023-05-21T20:09:24.814Z,22.20
2023-05-21T20:11:52.271Z,22.10
2023-05-21T20:14:19.668Z,22.00
2023-05-21T20:16:47.373Z,22.00
2023-05-21T20:19:15.452Z,22.00
2023-05-21T20:21:43.326Z,21.90
2023-05-21T20:24:12.257Z,21.80
2023-05-21T20:26:40.337Z,21.80
2023-05-21T20:29:08.212Z,21.80
2023-05-21T20:31:36.026Z,21.70
2023-05-21T20:34:07.796Z,21.70
2023-05-21T20:36:36.333Z,21.70
2023-05-21T20:39:04.130Z,21.70
2023-05-21T20:41:37.934Z,21.60
2023-05-21T20:44:06.191Z,21.60
2023-05-21T20:46:38.162Z,21.50
2023-05-21T20:49:06.210Z,21.40
2023-05-21T20:51:34.033Z,21.40
2023-05-21T20:54:01.539Z,21.30
2023-05-21T20:56:40.825Z,21.30
2023-05-21T20:59:11.224Z,21.20
2023-05-21T21:01:40.768Z,21.20
2023-05-21T21:04:09.115Z,21.10
2023-05-21T21:06:38.296Z,21.10
2023-05-21T21:09:06.150Z,21.00
2023-05-21T21:11:33.541Z,20.90
2023-05-21T21:14:02.541Z,20.90
2023-05-21T21:16:30.084Z,20.80
2023-05-21T21:18:57.549Z,20.60
2023-05-21T21:21:25.142Z,20.40
2023-05-21T21:23:52.537Z,20.30
2023-05-21T21:26:20.101Z,20.30
2023-05-21T21:28:47.583Z,20.30
2023-05-21T21:31:17.571Z,20.30
2023-05-21T21:33:44.956Z,20.40
2023-05-21T21:36:12.514Z,20.40
2023-05-21T21:38:39.991Z,20.40
2023-05-21T21:41:07.813Z,20.30
2023-05-21T21:43:35.598Z,20.40
2023-05-21T21:46:03.826Z,20.40
2023-05-21T21:48:31.340Z,20.40
2023-05-21T21:50:59.023Z,20.40
2023-05-21T21:53:26.514Z,20.40
2023-05-21T21:55:55.451Z,20.30
2023-05-21T21:58:23.187Z,20.30
2023-05-21T22:00:50.630Z,20.20
2023-05-21T22:03:18.052Z,20.10
2023-05-21T22:05:46.133Z,20.10
2023-05-21T22:08:13.548Z,20.10
2023-05-21T22:10:41.124Z,20.00
2023-05-21T22:13:08.724Z,20.00
2023-05-21T22:15:36.130Z,20.00
2023-05-21T22:18:03.975Z,20.00
2023-05-21T22:20:33.170Z,19.90
2023-05-21T22:23:01.033Z,19.90
2023-05-21T22:25:28.305Z,19.90
2023-05-21T22:27:55.705Z,19.80
2023-05-21T22:30:23.040Z,19.70
2023-05-21T22:32:50.484Z,19.60
2023-05-21T22:35:18.650Z,19.60
2023-05-21T22:37:47.008Z,19.60
2023-05-21T22:40:14.427Z,19.50
2023-05-21T22:42:42.248Z,19.50
2023-05-21T22:45:10.100Z,19.50
2023-05-21T22:47:39.685Z,19.50
2023-05-21T22:50:08.248Z,19.40
2023-05-21T22:52:36.036Z,19.30
2023-05-21T22:55:03.925Z,19.20
2023-05-21T22:57:31.292Z,19.20
2023-05-21T22:59:58.634Z,19.10
2023-05-21T23:02:26.302Z,19.10
2023-05-21T23:04:54.060Z,19.20
2023-05-21T23:07:21.655Z,19.10
2023-05-21T23:09:51.753Z,19.10
2023-05-21T23:12:19.169Z,19.00
2023-05-21T23:14:47.570Z,19.10
2023-05-21T23:17:14.876Z,19.00
2023-05-21T23:19:42.717Z,18.90
2023-05-21T23:22:10.062Z,18.80
2023-05-21T23:24:39.079Z,18.80
2023-05-21T23:27:06.503Z,18.80
2023-05-21T23:29:34.278Z,18.70
2023-05-21T23:32:01.955Z,18.70
2023-05-21T23:34:29.500Z,18.70
2023-05-21T23:36:59.440Z,18.60
2023-05-21T23:39:28.858Z,18.50
2023-05-21T23:41:56.456Z,18.50
2023-05-21T23:44:24.183Z,18.50
2023-05-21T23:46:52.038Z,18.40
2023-05-21T23:49:19.523Z,18.40
2023-05-21T23:51:50.709Z,18.40
2023-05-21T23:54:18.396Z,18.40
2023-05-21T23:56:46.347Z,18.40
2023-05-21T23:59:15.086Z,18.30
